Time;durP1;ratioP1;P1;durP2;ratioP2;P2;SDS_P1;SDS_P2;PMS_P1;PMS_P2;Temp;Humidity;BMP_temperature;BMP_pressure;BME280_temperature;BME280_humidity;BME280_pressure;Samples;Min_cycle;Max_cycle;Signal;HPM_P1;HPM_P2
2022/06/01 00:01:45;;;;;;;2.22;1.85;;;;;;;;;;5092873;28;20087;-68
2022/06/01 00:04:12;;;;;;;2.08;1.88;;;;;;;;;;5092406;28;20089;-67
2022/06/01 00:06:38;;;;;;;2.00;1.85;;;;;;;;;;5092753;28;20076;-67
2022/06/01 00:09:05;;;;;;;2.78;1.92;;;;;;;;;;5092746;28;20080;-67
2022/06/01 00:11:32;;;;;;;2.45;1.90;;;;;;;;;;5092632;28;20083;-67
2022/06/01 00:13:58;;;;;;;4.07;2.00;;;;;;;;;;5092755;28;20079;-68
2022/06/01 00:16:25;;;;;;;3.28;1.83;;;;;;;;;;5092535;28;20040;-68
2022/06/01 00:18:52;;;;;;;2.88;2.00;;;;;;;;;;5092356;28;20127;-68
2022/06/01 00:21:18;;;;;;;2.10;1.92;;;;;;;;;;5092498;28;20089;-68
2022/06/01 00:23:45;;;;;;;4.18;1.85;;;;;;;;;;5092422;28;20084;-68
2022/06/01 00:26:11;;;;;;;2.83;1.92;;;;;;;;;;5092225;28;20044;-68
2022/06/01 00:28:38;;;;;;;2.85;2.08;;;;;;;;;;5092106;28;20050;-68
2022/06/01 00:31:04;;;;;;;3.88;2.20;;;;;;;;;;5092118;28;20095;-68
2022/06/01 00:33:31;;;;;;;3.72;2.33;;;;;;;;;;5092022;28;20040;-67
2022/06/01 00:35:57;;;;;;;5.22;2.03;;;;;;;;;;5092049;28;20083;-67
2022/06/01 00:38:24;;;;;;;2.28;1.90;;;;;;;;;;5092258;28;20055;-67
2022/06/01 00:40:50;;;;;;;2.67;2.25;;;;;;;;;;5091929;28;20102;-68
2022/06/01 00:43:19;;;;;;;3.13;1.90;;;;;;;;;;5091985;28;20088;-68
2022/06/01 00:45:45;;;;;;;1.92;1.75;;;;;;;;;;5091801;28;20044;-68
2022/06/01 00:48:13;;;;;;;2.10;1.90;;;;;;;;;;5092166;28;20127;-68
2022/06/01 00:50:41;;;;;;;2.88;2.30;;;;;;;;;;5090923;28;20407;-68
2022/06/01 00:53:13;;;;;;;2.40;2.00;;;;;;;;;;5091989;28;20086;-68
2022/06/01 00:55:45;;;;;;;2.15;2.00;;;;;;;;;;5091804;28;20048;-68
2022/06/01 00:58:18;;;;;;;2.53;1.70;;;;;;;;;;5081434;28;20098;-67
2022/06/01 01:00:46;;;;;;;1.80;1.70;;;;;;;;;;5088383;28;20092;-68
2022/06/01 01:03:14;;;;;;;2.20;2.00;;;;;;;;;;5092177;28;20044;-68
2022/06/01 01:05:43;;;;;;;2.92;1.92;;;;;;;;;;5091695;28;20055;-68
2022/06/01 01:08:09;;;;;;;2.30;1.95;;;;;;;;;;5092105;28;20075;-68
2022/06/01 01:10:36;;;;;;;2.85;2.17;;;;;;;;;;5091916;28;20086;-68
2022/06/01 01:13:05;;;;;;;2.03;1.88;;;;;;;;;;5091831;28;20127;-67
2022/06/01 01:15:41;;;;;;;3.67;2.20;;;;;;;;;;5091579;28;20488;-68
2022/06/01 01:18:12;;;;;;;2.28;2.00;;;;;;;;;;5091835;28;20048;-68
2022/06/01 01:21:01;;;;;;;2.40;2.00;;;;;;;;;;5091891;28;20080;-68
2022/06/01 01:23:38;;;;;;;2.72;2.33;;;;;;;;;;5090964;28;20047;-68
2022/06/01 01:26:05;;;;;;;3.53;2.20;;;;;;;;;;5091780;28;20091;-68
2022/06/01 01:28:33;;;;;;;1.88;1.77;;;;;;;;;;5091461;28;20590;-67
2022/06/01 01:31:08;;;;;;;2.60;2.10;;;;;;;;;;5089112;28;20076;-67
2022/06/01 01:33:34;;;;;;;2.40;2.20;;;;;;;;;;5089329;28;20123;-68
2022/06/01 01:36:08;;;;;;;2.55;2.30;;;;;;;;;;5091687;28;20056;-68
2022/06/01 01:38:47;;;;;;;3.05;2.40;;;;;;;;;;5091682;28;20457;-68
2022/06/01 01:41:31;;;;;;;2.63;1.98;;;;;;;;;;5091620;28;20085;-68
2022/06/01 01:44:00;;;;;;;3.05;2.38;;;;;;;;;;5091326;28;20519;-68
2022/06/01 01:46:27;;;;;;;2.25;2.05;;;;;;;;;;5091537;28;20048;-68
2022/06/01 01:48:54;;;;;;;3.45;2.25;;;;;;;;;;5091133;28;20043;-68
2022/06/01 01:51:22;;;;;;;2.22;2.13;;;;;;;;;;5091259;28;20070;-68
2022/06/01 01:53:48;;;;;;;3.15;2.40;;;;;;;;;;5091329;28;20097;-68
2022/06/01 01:56:24;;;;;;;3.33;2.13;;;;;;;;;;5091209;28;20559;-68
2022/06/01 01:59:11;;;;;;;2.90;2.25;;;;;;;;;;5091174;28;20487;-68
2022/06/01 02:01:45;;;;;;;3.53;2.43;;;;;;;;;;5089934;28;20056;-68
2022/06/01 02:07:33;;;;;;;3.83;3.45;;;;;;;;;;5090678;28;20067;-68
2022/06/01 02:12:46;;;;;;;4.63;3.45;;;;;;;;;;5095057;28;20071;-68
2022/06/01 02:15:15;;;;;;;3.63;3.33;;;;;;;;;;5094666;28;20389;-68
2022/06/01 02:17:51;;;;;;;3.75;3.35;;;;;;;;;;5094841;28;20079;-68
2022/06/01 02:20:24;;;;;;;3.50;2.92;;;;;;;;;;5095274;28;20088;-68
2022/06/01 02:22:50;;;;;;;2.75;2.55;;;;;;;;;;5094988;28;20080;-67
2022/06/01 02:25:17;;;;;;;2.50;2.30;;;;;;;;;;5094609;28;20039;-68
2022/06/01 02:27:44;;;;;;;2.75;2.55;;;;;;;;;;5094446;28;20411;-67
2022/06/01 02:30:13;;;;;;;2.58;2.38;;;;;;;;;;5094498;28;20080;-68
2022/06/01 02:32:41;;;;;;;2.95;2.75;;;;;;;;;;5094701;28;20095;-68
2022/06/01 02:35:07;;;;;;;;;;;;;;;;;;5094831;28;20086;-68
2022/06/01 02:37:35;;;;;;;2.58;2.38;;;;;;;;;;5094831;28;19924;-67
2022/06/01 02:40:02;;;;;;;;;;;;;;;;;;5094896;28;20047;-67
2022/06/01 02:42:29;;;;;;;2.83;2.53;;;;;;;;;;5094531;28;19974;-67
2022/06/01 02:45:00;;;;;;;2.50;2.30;;;;;;;;;;5092856;28;20048;-67
2022/06/01 02:47:28;;;;;;;2.42;2.22;;;;;;;;;;5094103;28;20094;-67
2022/06/01 02:49:54;;;;;;;2.80;2.38;;;;;;;;;;5094081;28;20087;-67
2022/06/01 02:52:21;;;;;;;2.65;2.40;;;;;;;;;;5093975;28;20071;-67
2022/06/01 02:54:48;;;;;;;2.58;2.38;;;;;;;;;;5093831;28;20055;-67
2022/06/01 02:57:15;;;;;;;3.25;2.38;;;;;;;;;;5093875;28;20080;-67
2022/06/01 02:59:41;;;;;;;2.22;2.03;;;;;;;;;;5094334;28;20377;-67
2022/06/01 03:02:11;;;;;;;2.53;2.33;;;;;;;;;;5094220;28;20084;-67
2022/06/01 03:04:37;;;;;;;10.57;2.97;;;;;;;;;;5093627;28;20087;-67
2022/06/01 03:07:04;;;;;;;3.58;2.42;;;;;;;;;;5094021;28;20052;-67
2022/06/01 03:09:34;;;;;;;3.03;2.72;;;;;;;;;;5093654;28;20491;-67
2022/06/01 03:12:01;;;;;;;4.13;2.60;;;;;;;;;;5093794;28;20066;-67
2022/06/01 03:14:27;;;;;;;4.05;2.25;;;;;;;;;;5093753;28;20055;-68
2022/06/01 03:16:55;;;;;;;3.40;2.42;;;;;;;;;;5093450;28;20086;-67
2022/06/01 03:19:22;;;;;;;3.50;2.38;;;;;;;;;;5093603;28;20043;-68
2022/06/01 03:21:48;;;;;;;2.78;2.55;;;;;;;;;;5093086;28;20097;-67
2022/06/01 03:24:15;;;;;;;2.67;2.45;;;;;;;;;;5093836;28;20064;-67
2022/06/01 03:26:42;;;;;;;2.72;2.53;;;;;;;;;;5093253;28;20492;-68
2022/06/01 03:29:08;;;;;;;3.13;2.92;;;;;;;;;;5092086;28;20082;-68
2022/06/01 03:31:35;;;;;;;3.17;2.95;;;;;;;;;;5093411;28;20094;-68
2022/06/01 03:34:02;;;;;;;2.63;2.43;;;;;;;;;;5091984;28;20530;-68
2022/06/01 03:36:29;;;;;;;2.60;2.40;;;;;;;;;;5093107;28;20078;-68
2022/06/01 03:38:56;;;;;;;2.70;2.50;;;;;;;;;;5093135;28;20075;-68
2022/06/01 03:41:27;;;;;;;3.00;2.55;;;;;;;;;;5093117;28;20472;-68
2022/06/01 03:46:39;;;;;;;3.45;3.15;;;;;;;;;;5092845;28;20488;-68
2022/06/01 03:49:06;;;;;;;3.50;2.95;;;;;;;;;;5092853;28;20048;-67
2022/06/01 03:51:32;;;;;;;3.03;2.80;;;;;;;;;;5092825;28;20072;-67
2022/06/01 03:54:00;;;;;;;3.63;3.00;;;;;;;;;;5093014;28;20407;-67
2022/06/01 03:56:27;;;;;;;3.45;3.00;;;;;;;;;;5092663;28;20056;-67
2022/06/01 03:58:54;;;;;;;3.27;2.87;;;;;;;;;;5092998;28;20354;-68
2022/06/01 04:01:20;;;;;;;3.35;3.08;;;;;;;;;;5093028;28;20477;-68
2022/06/01 04:03:47;;;;;;;2.75;2.53;;;;;;;;;;5092475;28;20083;-67
2022/06/01 04:06:14;;;;;;;2.60;2.40;;;;;;;;;;5092805;28;20114;-67
2022/06/01 04:08:40;;;;;;;3.50;2.50;;;;;;;;;;5092781;28;20094;-67
2022/06/01 04:11:07;;;;;;;3.92;3.00;;;;;;;;;;5092800;28;20077;-68
2022/06/01 04:13:33;;;;;;;4.55;3.35;;;;;;;;;;5092394;28;20079;-67
2022/06/01 04:15:59;;;;;;;3.22;3.00;;;;;;;;;;5092682;28;20051;-67
2022/06/01 04:18:42;;;;;;;4.18;3.00;;;;;;;;;;5092831;28;20055;-67
2022/06/01 04:21:08;;;;;;;4.40;3.30;;;;;;;;;;5092598;28;20584;-68
2022/06/01 04:23:35;;;;;;;4.13;3.03;;;;;;;;;;5092303;28;20052;-68
2022/06/01 04:26:01;;;;;;;3.47;2.80;;;;;;;;;;5092415;28;20083;-67
2022/06/01 04:28:28;;;;;;;3.42;3.13;;;;;;;;;;5092195;28;20080;-67
2022/06/01 04:30:54;;;;;;;3.80;2.72;;;;;;;;;;5092095;28;20491;-67
2022/06/01 04:33:21;;;;;;;3.45;3.00;;;;;;;;;;5091400;28;20067;-67
2022/06/01 04:35:47;;;;;;;3.88;2.70;;;;;;;;;;5091924;28;20098;-68
2022/06/01 04:38:14;;;;;;;2.78;2.55;;;;;;;;;;5092401;28;20047;-67
2022/06/01 04:40:41;;;;;;;3.72;3.13;;;;;;;;;;5091986;28;20047;-68
2022/06/01 04:43:08;;;;;;;3.15;2.75;;;;;;;;;;5091770;28;20507;-68
2022/06/01 04:45:34;;;;;;;3.47;3.17;;;;;;;;;;5092150;28;20048;-68
2022/06/01 04:48:01;;;;;;;4.65;3.35;;;;;;;;;;5092148;28;20040;-68
2022/06/01 04:50:27;;;;;;;5.22;3.30;;;;;;;;;;5092089;28;20091;-68
2022/06/01 04:52:54;;;;;;;5.10;3.70;;;;;;;;;;5092087;28;20075;-67
2022/06/01 04:55:21;;;;;;;3.95;3.50;;;;;;;;;;5091712;28;20495;-68
2022/06/01 04:57:47;;;;;;;5.80;4.15;;;;;;;;;;5091788;28;20530;-68
2022/06/01 05:00:14;;;;;;;5.25;3.78;;;;;;;;;;5090701;28;20087;-68
2022/06/01 05:02:40;;;;;;;6.32;3.70;;;;;;;;;;5091723;28;20079;-68
2022/06/01 05:05:07;;;;;;;7.25;3.95;;;;;;;;;;5092043;28;20171;-68
2022/06/01 05:07:34;;;;;;;4.47;4.07;;;;;;;;;;5091792;28;20052;-68
2022/06/01 05:10:01;;;;;;;8.93;5.45;;;;;;;;;;5092098;28;20075;-68
2022/06/01 05:12:27;;;;;;;6.00;4.47;;;;;;;;;;5091511;28;20484;-67
2022/06/01 05:14:53;;;;;;;5.63;3.97;;;;;;;;;;5091724;28;20825;-67
2022/06/01 05:17:20;;;;;;;6.07;4.30;;;;;;;;;;5091848;28;20101;-68
2022/06/01 05:19:46;;;;;;;4.18;3.70;;;;;;;;;;5091935;28;20139;-68
2022/06/01 05:22:13;;;;;;;4.45;3.90;;;;;;;;;;5091527;28;20087;-68
2022/06/01 05:24:39;;;;;;;5.13;4.38;;;;;;;;;;5091840;28;20076;-68
2022/06/01 05:27:07;;;;;;;7.35;3.92;;;;;;;;;;5091619;28;20087;-68
2022/06/01 05:29:33;;;;;;;4.40;3.95;;;;;;;;;;5090362;28;20126;-68
2022/06/01 05:32:00;;;;;;;6.60;4.40;;;;;;;;;;5091555;28;20550;-68
2022/06/01 05:34:27;;;;;;;5.32;4.18;;;;;;;;;;5091608;28;20316;-68
2022/06/01 05:36:53;;;;;;;6.22;3.75;;;;;;;;;;5091728;28;20101;-68
2022/06/01 05:39:19;;;;;;;6.60;4.03;;;;;;;;;;5091029;28;20072;-68
2022/06/01 05:41:46;;;;;;;4.43;3.60;;;;;;;;;;5091233;28;20954;-68
2022/06/01 05:44:13;;;;;;;4.60;3.63;;;;;;;;;;5091471;28;20126;-68
2022/06/01 05:46:40;;;;;;;4.18;3.40;;;;;;;;;;5095598;28;20116;-67
2022/06/01 05:49:06;;;;;;;4.80;3.17;;;;;;;;;;5095427;28;20450;-67
2022/06/01 05:51:34;;;;;;;4.15;3.80;;;;;;;;;;5095104;28;20530;-68
2022/06/01 05:54:01;;;;;;;4.45;3.60;;;;;;;;;;5095333;28;20102;-68
2022/06/01 05:56:27;;;;;;;4.32;3.63;;;;;;;;;;5095422;28;20101;-68
2022/06/01 05:58:54;;;;;;;4.72;3.28;;;;;;;;;;5094482;28;20564;-67
2022/06/01 06:01:23;;;;;;;4.80;3.17;;;;;;;;;;5093469;28;20052;-67
2022/06/01 06:03:50;;;;;;;5.90;3.53;;;;;;;;;;5094774;28;20056;-68
2022/06/01 06:06:17;;;;;;;2.83;2.40;;;;;;;;;;5094925;28;20076;-67
2022/06/01 06:08:43;;;;;;;3.88;2.63;;;;;;;;;;5094823;28;20058;-68
2022/06/01 06:11:15;;;;;;;3.05;2.42;;;;;;;;;;5094464;28;20079;-68
2022/06/01 06:13:41;;;;;;;2.95;2.35;;;;;;;;;;5095242;28;20074;-67
2022/06/01 06:16:08;;;;;;;1.88;1.77;;;;;;;;;;5094363;28;20134;-67
2022/06/01 06:18:35;;;;;;;3.17;1.70;;;;;;;;;;5094968;28;20087;-68
2022/06/01 06:21:01;;;;;;;2.90;1.80;;;;;;;;;;5094925;28;20079;-68
2022/06/01 06:23:27;;;;;;;2.15;1.67;;;;;;;;;;5094329;28;20082;-67
2022/06/01 06:25:54;;;;;;;3.50;1.63;;;;;;;;;;5094524;28;20045;-67
2022/06/01 06:28:20;;;;;;;2.17;1.67;;;;;;;;;;5085729;28;20083;-68
2022/06/01 06:30:47;;;;;;;2.78;1.60;;;;;;;;;;5092870;28;20490;-67
2022/06/01 06:33:13;;;;;;;1.55;1.45;;;;;;;;;;5092325;28;20462;-67
2022/06/01 06:35:40;;;;;;;2.60;1.90;;;;;;;;;;5094242;28;20044;-67
2022/06/01 06:38:06;;;;;;;3.30;2.35;;;;;;;;;;5093101;28;20542;-67
2022/06/01 06:40:33;;;;;;;1.90;1.80;;;;;;;;;;5093584;28;20090;-67
2022/06/01 06:42:59;;;;;;;1.85;1.70;;;;;;;;;;5093050;28;20078;-69
2022/06/01 06:45:26;;;;;;;1.73;1.63;;;;;;;;;;5093266;28;20075;-68
2022/06/01 06:47:52;;;;;;;1.52;1.27;;;;;;;;;;5093645;28;21294;-68
2022/06/01 06:50:19;;;;;;;1.25;1.20;;;;;;;;;;5093181;28;20448;-68
2022/06/01 06:53:06;;;;;;;1.50;1.40;;;;;;;;;;5093563;28;20055;-68
2022/06/01 06:55:32;;;;;;;3.03;1.20;;;;;;;;;;5093150;28;20098;-67
2022/06/01 06:57:59;;;;;;;3.70;1.40;;;;;;;;;;5092283;28;20080;-69
2022/06/01 07:00:25;;;;;;;1.48;1.38;;;;;;;;;;5093372;28;20072;-69
2022/06/01 07:02:52;;;;;;;3.08;1.33;;;;;;;;;;5091772;28;20483;-67
2022/06/01 07:08:06;;;;;;;1.17;1.17;;;;;;;;;;5093406;28;20083;-67
2022/06/01 07:10:33;;;;;;;1.45;1.35;;;;;;;;;;5093132;28;20073;-66
2022/06/01 07:12:59;;;;;;;2.10;0.90;;;;;;;;;;5092183;28;20094;-68
2022/06/01 07:15:25;;;;;;;1.58;1.13;;;;;;;;;;5080232;28;20488;-67
2022/06/01 07:17:52;;;;;;;1.05;0.70;;;;;;;;;;5093237;28;20048;-68
2022/06/01 07:20:19;;;;;;;1.63;0.87;;;;;;;;;;5089800;28;20070;-69
2022/06/01 07:22:45;;;;;;;1.30;0.80;;;;;;;;;;5092722;28;20040;-69
2022/06/01 07:25:11;;;;;;;0.75;0.75;;;;;;;;;;5092840;28;20075;-69
2022/06/01 07:27:38;;;;;;;1.02;0.93;;;;;;;;;;5092223;28;20153;-69
2022/06/01 07:30:10;;;;;;;0.95;0.70;;;;;;;;;;5092279;28;20046;-69
2022/06/01 07:32:37;;;;;;;1.08;0.77;;;;;;;;;;5090283;28;20488;-69
2022/06/01 07:35:06;;;;;;;1.88;1.10;;;;;;;;;;5092475;28;20076;-68
2022/06/01 07:43:05;;;;;;;1.02;0.50;;;;;;;;;;5092479;28;20091;-67
2022/06/01 07:45:33;;;;;;;0.32;0.32;;;;;;;;;;5092669;28;20506;-68
2022/06/01 07:48:01;;;;;;;0.30;0.30;;;;;;;;;;5092253;28;20546;-66
2022/06/01 07:50:47;;;;;;;0.70;0.30;;;;;;;;;;5092289;28;20135;-67
2022/06/01 07:53:14;;;;;;;0.32;0.32;;;;;;;;;;5092773;28;20445;-68
2022/06/01 07:55:41;;;;;;;0.40;0.30;;;;;;;;;;5092130;28;20132;-68
2022/06/01 07:58:08;;;;;;;2.22;1.75;;;;;;;;;;5092500;28;20048;-68
2022/06/01 08:00:34;;;;;;;0.60;0.60;;;;;;;;;;5092136;28;20097;-68
2022/06/01 08:03:01;;;;;;;4.27;0.60;;;;;;;;;;5092261;28;20086;-71
2022/06/01 08:05:27;;;;;;;0.40;0.40;;;;;;;;;;5090787;28;20072;-67
2022/06/01 08:07:54;;;;;;;1.13;0.43;;;;;;;;;;5092022;28;20465;-66
2022/06/01 08:10:21;;;;;;;0.43;0.20;;;;;;;;;;5092208;28;20040;-67
2022/06/01 08:15:44;;;;;;;1.95;1.00;;;;;;;;;;5095438;28;20102;-66
2022/06/01 08:18:13;;;;;;;2.15;1.35;;;;;;;;;;5092103;28;20056;-67
2022/06/01 08:20:39;;;;;;;2.72;1.88;;;;;;;;;;5092013;28;20095;-67
2022/06/01 08:23:06;;;;;;;3.33;1.77;;;;;;;;;;5092285;28;20055;-67
2022/06/01 08:25:33;;;;;;;1.60;1.20;;;;;;;;;;5092054;28;20116;-67
2022/06/01 08:28:00;;;;;;;0.73;0.32;;;;;;;;;;5091563;28;20048;-67
2022/06/01 08:30:27;;;;;;;2.60;0.50;;;;;;;;;;5091941;28;20373;-66
2022/06/01 08:32:54;;;;;;;0.60;0.20;;;;;;;;;;5089834;28;20235;-67
2022/06/01 08:35:25;;;;;;;1.85;1.33;;;;;;;;;;5091315;28;20075;-67
2022/06/01 08:37:51;;;;;;;1.73;1.00;;;;;;;;;;5091088;28;20071;-67
2022/06/01 08:40:19;;;;;;;3.47;2.30;;;;;;;;;;5091339;28;20130;-67
2022/06/01 08:42:53;;;;;;;1.98;1.88;;;;;;;;;;5089878;28;20411;-70
2022/06/01 08:45:22;;;;;;;1.42;0.80;;;;;;;;;;5085561;28;20098;-67
2022/06/01 08:47:49;;;;;;;1.35;0.63;;;;;;;;;;5077030;28;20097;-68
2022/06/01 08:50:33;;;;;;;0.57;0.57;;;;;;;;;;5091726;28;20072;-68
2022/06/01 08:53:01;;;;;;;1.60;1.27;;;;;;;;;;5091451;28;20067;-68
2022/06/01 08:55:34;;;;;;;2.15;1.73;;;;;;;;;;5091225;28;20079;-68
2022/06/01 08:58:09;;;;;;;1.90;1.48;;;;;;;;;;5091408;28;20094;-68
2022/06/01 09:00:39;;;;;;;0.63;0.40;;;;;;;;;;5091547;28;20052;-68
2022/06/01 09:03:13;;;;;;;0.30;0.30;;;;;;;;;;5091309;28;20105;-68
2022/06/01 09:05:44;;;;;;;1.13;0.55;;;;;;;;;;5091068;28;20567;-67
2022/06/01 09:08:19;;;;;;;0.80;0.68;;;;;;;;;;5091291;28;20048;-68
2022/06/01 09:11:04;;;;;;;1.77;0.70;;;;;;;;;;5090163;28;20483;-68
2022/06/01 09:13:32;;;;;;;0.50;0.50;;;;;;;;;;5091128;28;20071;-68
2022/06/01 09:16:01;;;;;;;0.77;0.30;;;;;;;;;;5091059;28;20496;-68
2022/06/01 09:18:28;;;;;;;1.42;0.70;;;;;;;;;;5091037;28;20496;-68
2022/06/01 09:23:42;;;;;;;0.35;0.35;;;;;;;;;;5095224;28;20126;-69
2022/06/01 09:26:22;;;;;;;1.20;1.08;;;;;;;;;;5093948;28;20079;-69
2022/06/01 09:28:52;;;;;;;0.30;0.20;;;;;;;;;;5095571;28;20080;-69
2022/06/01 09:31:27;;;;;;;1.27;0.60;;;;;;;;;;5095060;28;20563;-69
2022/06/01 09:34:12;;;;;;;1.02;0.98;;;;;;;;;;5093414;28;20161;-69
2022/06/01 09:36:47;;;;;;;0.45;0.35;;;;;;;;;;5095111;28;20097;-69
2022/06/01 09:39:17;;;;;;;2.53;0.82;;;;;;;;;;5095116;28;20048;-69
2022/06/01 09:41:44;;;;;;;1.25;0.50;;;;;;;;;;5095167;28;20075;-69
2022/06/01 09:44:14;;;;;;;0.95;0.60;;;;;;;;;;5094920;28;20079;-69
2022/06/01 09:46:47;;;;;;;1.38;0.90;;;;;;;;;;5095363;28;20072;-69
2022/06/01 09:49:19;;;;;;;1.27;0.60;;;;;;;;;;5094760;28;20113;-69
2022/06/01 09:51:46;;;;;;;0.30;0.28;;;;;;;;;;5095094;28;20071;-69
2022/06/01 09:54:15;;;;;;;0.77;0.75;;;;;;;;;;5095257;28;20044;-69
2022/06/01 09:56:47;;;;;;;1.05;0.65;;;;;;;;;;5093894;28;20106;-68
2022/06/01 10:07:43;;;;;;;0.30;0.30;;;;;;;;;;5086436;28;20135;-67
2022/06/01 10:10:19;;;;;;;1.08;0.40;;;;;;;;;;5093260;28;20121;-68
2022/06/01 10:12:50;;;;;;;0.50;0.25;;;;;;;;;;5093711;28;20043;-68
2022/06/01 10:15:31;;;;;;;0.90;0.57;;;;;;;;;;5093567;28;20063;-68
2022/06/01 10:18:24;;;;;;;0.95;0.50;;;;;;;;;;5094830;28;20079;-71
2022/06/01 10:20:55;;;;;;;0.32;0.30;;;;;;;;;;5093595;28;20392;-69
2022/06/01 10:23:25;;;;;;;0.90;0.60;;;;;;;;;;5093739;28;20047;-67
2022/06/01 10:25:53;;;;;;;0.52;0.40;;;;;;;;;;5094301;28;20102;-69
2022/06/01 10:28:26;;;;;;;1.63;0.60;;;;;;;;;;5094609;28;20482;-68
2022/06/01 10:31:28;;;;;;;0.73;0.50;;;;;;;;;;5094374;28;20491;-68
2022/06/01 10:34:05;;;;;;;2.05;0.90;;;;;;;;;;5094246;28;20515;-68
2022/06/01 10:36:43;;;;;;;0.90;0.30;;;;;;;;;;5094370;28;20089;-68
2022/06/01 10:39:13;;;;;;;1.17;0.38;;;;;;;;;;5094426;28;20079;-68
2022/06/01 10:41:46;;;;;;;0.82;0.40;;;;;;;;;;5094311;28;20048;-67
2022/06/01 10:44:18;;;;;;;0.98;0.73;;;;;;;;;;5090658;28;20050;-68
2022/06/01 10:46:49;;;;;;;1.35;0.65;;;;;;;;;;5093848;28;20480;-68
2022/06/01 10:49:22;;;;;;;1.63;1.20;;;;;;;;;;5094134;28;20047;-67
2022/06/01 10:52:03;;;;;;;1.02;0.93;;;;;;;;;;5094062;28;20048;-67
2022/06/01 10:54:44;;;;;;;5.82;5.03;;;;;;;;;;5094152;28;20419;-67
2022/06/01 10:57:16;;;;;;;3.58;2.92;;;;;;;;;;5090360;28;20055;-70
2022/06/01 10:59:42;;;;;;;3.65;2.70;;;;;;;;;;5094126;28;20119;-67
2022/06/01 11:02:16;;;;;;;2.40;1.40;;;;;;;;;;5093862;28;20519;-67
2022/06/01 11:04:49;;;;;;;1.27;1.17;;;;;;;;;;5094335;28;20048;-67
2022/06/01 11:07:54;;;;;;;2.15;1.95;;;;;;;;;;5093947;28;20083;-68
2022/06/01 11:10:26;;;;;;;2.38;1.70;;;;;;;;;;5091342;28;20448;-67
2022/06/01 11:12:55;;;;;;;2.88;1.25;;;;;;;;;;5091289;28;20078;-66
2022/06/01 11:15:29;;;;;;;11.70;8.13;;;;;;;;;;5092145;28;20063;-68
2022/06/01 11:18:02;;;;;;;2.10;1.42;;;;;;;;;;5092725;28;20048;-66
2022/06/01 11:20:29;;;;;;;0.50;0.50;;;;;;;;;;5078209;28;20139;-68
2022/06/01 11:23:11;;;;;;;1.95;0.95;;;;;;;;;;5093819;28;20075;-67
2022/06/01 11:25:54;;;;;;;1.80;0.70;;;;;;;;;;5093476;28;20495;-67
2022/06/01 11:28:32;;;;;;;0.93;0.80;;;;;;;;;;5092501;28;20068;-67
2022/06/01 11:30:58;;;;;;;5.63;3.08;;;;;;;;;;5093325;28;20071;-68
2022/06/01 11:33:29;;;;;;;2.30;1.70;;;;;;;;;;5093317;28;20461;-68
2022/06/01 11:35:58;;;;;;;2.65;1.60;;;;;;;;;;5093430;28;20391;-68
2022/06/01 11:38:30;;;;;;;1.85;1.00;;;;;;;;;;5093378;28;20052;-68
2022/06/01 11:41:05;;;;;;;1.92;1.60;;;;;;;;;;5093018;28;20095;-68
2022/06/01 11:43:41;;;;;;;4.20;2.40;;;;;;;;;;5092015;28;20052;-68
2022/06/01 11:46:07;;;;;;;2.53;0.80;;;;;;;;;;5093302;28;20044;-68
2022/06/01 11:48:36;;;;;;;0.95;0.82;;;;;;;;;;5092922;28;20127;-68
2022/06/01 11:51:02;;;;;;;1.92;0.82;;;;;;;;;;5092998;28;20453;-67
2022/06/01 11:53:32;;;;;;;1.13;0.70;;;;;;;;;;5093019;28;20084;-68
2022/06/01 11:56:10;;;;;;;2.05;1.35;;;;;;;;;;5093305;28;20071;-67
2022/06/01 11:58:39;;;;;;;2.50;1.90;;;;;;;;;;5091575;28;20075;-67
2022/06/01 12:01:10;;;;;;;3.15;1.95;;;;;;;;;;5093100;28;20139;-68
2022/06/01 12:03:39;;;;;;;5.80;1.10;;;;;;;;;;5092956;28;20043;-68
2022/06/01 12:06:13;;;;;;;2.38;0.60;;;;;;;;;;5083781;28;20059;-69
2022/06/01 12:08:46;;;;;;;1.88;0.35;;;;;;;;;;5082480;28;20094;-67
2022/06/01 12:11:14;;;;;;;0.70;0.50;;;;;;;;;;5092325;28;20102;-68
2022/06/01 12:13:41;;;;;;;0.52;0.52;;;;;;;;;;5092622;28;20134;-68
2022/06/01 12:16:19;;;;;;;1.88;0.63;;;;;;;;;;5092356;28;20048;-68
2022/06/01 12:19:06;;;;;;;0.75;0.43;;;;;;;;;;5092559;28;20138;-68
2022/06/01 12:21:42;;;;;;;0.45;0.45;;;;;;;;;;5091141;28;20078;-68
2022/06/01 12:30:05;;;;;;;1.15;0.65;;;;;;;;;;5092401;28;20048;-68
2022/06/01 12:32:51;;;;;;;0.60;0.60;;;;;;;;;;5092188;28;20549;-68
2022/06/01 12:35:19;;;;;;;1.38;0.60;;;;;;;;;;5090920;28;20461;-68
2022/06/01 12:37:58;;;;;;;0.68;0.68;;;;;;;;;;5091967;28;20079;-68
2022/06/01 12:40:25;;;;;;;0.60;0.40;;;;;;;;;;5091980;28;20097;-68
2022/06/01 12:42:54;;;;;;;1.10;0.70;;;;;;;;;;5082606;28;20090;-68
2022/06/01 12:45:28;;;;;;;2.03;1.25;;;;;;;;;;5091316;28;20052;-67
2022/06/01 12:47:57;;;;;;;7.72;4.22;;;;;;;;;;5090803;28;20048;-71
2022/06/01 12:50:26;;;;;;;4.43;2.63;;;;;;;;;;5091310;28;20086;-67
2022/06/01 12:53:09;;;;;;;1.67;0.75;;;;;;;;;;5088116;28;20044;-69
2022/06/01 12:55:36;;;;;;;0.70;0.50;;;;;;;;;;5090310;28;20127;-68
2022/06/01 12:58:07;;;;;;;0.73;0.50;;;;;;;;;;5091084;28;20579;-68
2022/06/01 13:00:36;;;;;;;0.68;0.60;;;;;;;;;;5091343;28;20444;-72
2022/06/01 13:03:12;;;;;;;1.60;0.60;;;;;;;;;;5091599;28;20072;-70
2022/06/01 13:05:41;;;;;;;1.05;0.80;;;;;;;;;;5091409;28;20488;-68
2022/06/01 13:08:16;;;;;;;1.00;0.50;;;;;;;;;;5088993;28;20079;-67
2022/06/01 13:10:55;;;;;;;2.25;0.68;;;;;;;;;;5063460;28;20082;-68
2022/06/01 13:13:28;;;;;;;3.10;0.60;;;;;;;;;;5090203;28;20089;-68
2022/06/01 13:16:03;;;;;;;1.38;0.70;;;;;;;;;;5090521;28;20040;-68
2022/06/01 13:18:33;;;;;;;1.02;0.65;;;;;;;;;;5090505;28;20162;-68
2022/06/01 13:21:14;;;;;;;0.50;0.50;;;;;;;;;;5091500;28;20052;-68
2022/06/01 13:23:41;;;;;;;0.85;0.80;;;;;;;;;;5091826;28;20079;-68
2022/06/01 13:26:09;;;;;;;0.70;0.70;;;;;;;;;;5091516;28;20550;-68
2022/06/01 13:28:36;;;;;;;0.98;0.50;;;;;;;;;;5091394;28;20496;-69
2022/06/01 13:31:02;;;;;;;0.55;0.40;;;;;;;;;;5091370;28;20078;-68
2022/06/01 13:33:35;;;;;;;0.63;0.50;;;;;;;;;;5091636;28;20050;-68
2022/06/01 13:36:03;;;;;;;0.75;0.40;;;;;;;;;;5091212;28;20075;-69
2022/06/01 13:38:36;;;;;;;0.63;0.50;;;;;;;;;;5090523;28;20087;-67
2022/06/01 13:41:08;;;;;;;0.40;0.40;;;;;;;;;;5091037;28;20068;-67
2022/06/01 13:43:42;;;;;;;1.38;0.75;;;;;;;;;;5091501;28;20079;-67
2022/06/01 13:46:11;;;;;;;1.02;0.70;;;;;;;;;;5091806;28;20411;-67
2022/06/01 13:48:39;;;;;;;1.65;0.70;;;;;;;;;;5091517;28;20111;-67
2022/06/01 13:51:14;;;;;;;1.63;0.80;;;;;;;;;;5091289;28;20086;-68
2022/06/01 13:53:43;;;;;;;0.40;0.40;;;;;;;;;;5091421;28;20062;-68
2022/06/01 13:56:13;;;;;;;1.90;0.73;;;;;;;;;;5091347;28;20553;-68
2022/06/01 13:58:51;;;;;;;2.45;0.63;;;;;;;;;;5090286;28;20102;-68
2022/06/01 14:01:28;;;;;;;0.55;0.32;;;;;;;;;;5091528;28;20118;-68
2022/06/01 14:03:57;;;;;;;0.40;0.40;;;;;;;;;;5091326;28;20044;-68
2022/06/01 14:06:36;;;;;;;0.40;0.40;;;;;;;;;;5093263;28;20056;-68
2022/06/01 14:09:03;;;;;;;0.50;0.40;;;;;;;;;;5094870;28;20070;-68
2022/06/01 14:11:31;;;;;;;0.57;0.40;;;;;;;;;;5095270;28;20095;-68
2022/06/01 14:14:04;;;;;;;0.70;0.40;;;;;;;;;;5093678;28;20115;-68
2022/06/01 14:16:31;;;;;;;2.10;0.40;;;;;;;;;;5094782;28;20079;-68
2022/06/01 14:19:00;;;;;;;0.30;0.22;;;;;;;;;;5093550;28;20056;-68
2022/06/01 14:21:26;;;;;;;1.00;0.38;;;;;;;;;;5094557;28;20488;-68
2022/06/01 14:23:54;;;;;;;1.85;0.30;;;;;;;;;;5094592;28;20500;-68
2022/06/01 14:29:05;;;;;;;0.77;0.32;;;;;;;;;;5094779;28;20157;-68
2022/06/01 14:31:33;;;;;;;0.47;0.20;;;;;;;;;;5094555;28;20091;-68
2022/06/01 14:34:01;;;;;;;0.63;0.22;;;;;;;;;;5094397;28;20055;-68
2022/06/01 14:36:29;;;;;;;0.95;0.30;;;;;;;;;;5094543;28;20458;-68
2022/06/01 14:38:56;;;;;;;1.00;0.30;;;;;;;;;;5094144;28;20195;-68
2022/06/01 14:41:25;;;;;;;0.50;0.30;;;;;;;;;;5093966;28;20095;-68
2022/06/01 14:43:53;;;;;;;1.10;0.50;;;;;;;;;;5094114;28;20139;-68
2022/06/01 14:46:19;;;;;;;1.08;0.30;;;;;;;;;;5092694;28;20044;-67
2022/06/01 14:48:50;;;;;;;0.75;0.20;;;;;;;;;;5092646;28;20087;-67
2022/06/01 14:51:19;;;;;;;1.27;0.57;;;;;;;;;;5094177;28;20079;-67
2022/06/01 14:53:45;;;;;;;0.55;0.50;;;;;;;;;;5094196;28;20040;-67
2022/06/01 14:56:12;;;;;;;0.93;0.60;;;;;;;;;;5094236;28;20039;-67
2022/06/01 14:58:38;;;;;;;0.65;0.65;;;;;;;;;;5092978;28;20044;-67
2022/06/01 15:01:16;;;;;;;1.63;0.50;;;;;;;;;;5093823;28;20079;-67
2022/06/01 15:03:45;;;;;;;1.05;0.60;;;;;;;;;;5093636;28;20056;-67
2022/06/01 15:06:13;;;;;;;1.23;0.50;;;;;;;;;;5093618;28;20101;-68
2022/06/01 15:08:39;;;;;;;1.58;1.13;;;;;;;;;;5087760;28;20493;-67
2022/06/01 15:11:06;;;;;;;0.85;0.55;;;;;;;;;;5079871;28;20036;-67
2022/06/01 15:13:33;;;;;;;0.82;0.60;;;;;;;;;;5093943;28;20146;-67
2022/06/01 15:16:01;;;;;;;0.40;0.30;;;;;;;;;;5093955;28;20097;-67
2022/06/01 15:18:28;;;;;;;0.55;0.43;;;;;;;;;;5092649;28;20056;-67
2022/06/01 15:20:54;;;;;;;1.27;0.50;;;;;;;;;;5093443;28;20109;-67
2022/06/01 15:23:20;;;;;;;2.28;0.50;;;;;;;;;;5093751;28;20102;-67
2022/06/01 15:25:47;;;;;;;0.50;0.50;;;;;;;;;;5093030;28;20048;-68
2022/06/01 15:28:15;;;;;;;0.95;0.40;;;;;;;;;;5093298;28;20085;-68
2022/06/01 15:41:42;;;;;;;1.10;0.30;;;;;;;;;;5089968;28;20176;-67
2022/06/01 15:44:09;;;;;;;0.90;0.40;;;;;;;;;;5071617;28;20088;-67
2022/06/01 15:46:37;;;;;;;1.20;0.40;;;;;;;;;;5089510;28;20052;-68
2022/06/01 15:49:05;;;;;;;0.35;0.22;;;;;;;;;;5092446;28;20044;-68